Time;durP1;ratioP1;P1;durP2;ratioP2;P2;SDS_P1;SDS_P2;PMS_P1;PMS_P2;Temp;Humidity;BMP_temperature;BMP_pressure;BME280_temperature;BME280_humidity;BME280_pressure;Samples;Min_cycle;Max_cycle;Signal;HPM_P1;HPM_P2
2024/03/08 00:02:00;;;;;;;86.30;58.17;;;5.10;2.80;;;;;;5030886;28;20179;-71
2024/03/08 00:04:25;;;;;;;84.07;56.73;;;5.10;2.30;;;;;;5029454;28;20934;-71
2024/03/08 00:06:51;;;;;;;85.47;56.67;;;5.00;2.30;;;;;;5030756;28;20885;-71
2024/03/08 00:09:17;;;;;;;84.77;52.97;;;5.00;3.00;;;;;;5031395;28;20555;-71
2024/03/08 00:11:42;;;;;;;87.13;60.07;;;5.00;3.20;;;;;;5031506;28;20172;-71
2024/03/08 00:14:08;;;;;;;85.43;55.23;;;4.90;4.30;;;;;;5031264;28;20179;-71
2024/03/08 00:16:35;;;;;;;84.27;55.70;;;4.90;5.30;;;;;;5031489;28;20172;-71
2024/03/08 00:19:01;;;;;;;84.57;56.83;;;4.90;5.80;;;;;;5031217;28;20717;-71
2024/03/08 00:21:29;;;;;;;85.37;57.53;;;4.90;6.00;;;;;;5031417;28;20399;-71
2024/03/08 00:23:55;;;;;;;85.53;57.27;;;4.80;6.30;;;;;;5031095;28;20400;-71
2024/03/08 00:26:22;;;;;;;82.97;52.70;;;4.90;7.10;;;;;;5031301;28;20414;-71
2024/03/08 00:28:48;;;;;;;86.77;56.30;;;4.80;6.70;;;;;;5031470;28;20563;-71
2024/03/08 00:31:16;;;;;;;84.60;60.77;;;4.80;7.40;;;;;;5031413;28;20480;-71
2024/03/08 00:33:42;;;;;;;87.67;61.83;;;4.80;7.60;;;;;;5031186;28;20403;-71
2024/03/08 00:36:08;;;;;;;87.00;65.37;;;4.80;7.60;;;;;;5031256;28;20476;-71
2024/03/08 00:38:34;;;;;;;90.20;63.83;;;4.80;7.30;;;;;;5031024;28;20278;-71
2024/03/08 00:40:59;;;;;;;92.00;61.20;;;4.80;7.50;;;;;;5031198;28;20164;-71
2024/03/08 00:43:25;;;;;;;85.47;49.67;;;4.80;6.80;;;;;;5030916;28;20494;-71
2024/03/08 00:45:51;;;;;;;86.53;60.47;;;4.70;7.40;;;;;;5031308;28;20259;-71
2024/03/08 00:48:17;;;;;;;83.73;58.67;;;4.80;8.40;;;;;;5031145;28;20506;-71
2024/03/08 00:50:45;;;;;;;82.80;55.30;;;4.80;8.70;;;;;;5031071;28;20186;-71
2024/03/08 00:53:11;;;;;;;83.50;53.90;;;4.70;8.40;;;;;;5030860;28;20260;-71
2024/03/08 00:55:37;;;;;;;82.57;55.87;;;4.70;7.70;;;;;;5030919;28;20933;-71
2024/03/08 00:58:04;;;;;;;85.40;63.67;;;5.10;23.70;;;;;;5031057;28;20550;-71
2024/03/08 01:00:29;;;;;;;86.73;56.03;;;4.60;9.90;;;;;;5031015;28;20399;-71
2024/03/08 01:02:55;;;;;;;89.67;59.57;;;4.60;9.20;;;;;;5030750;28;20909;-71
2024/03/08 01:05:22;;;;;;;86.07;59.20;;;4.60;9.50;;;;;;5031084;28;20164;-71
2024/03/08 01:07:49;;;;;;;82.17;57.53;;;4.30;19.80;;;;;;5030857;28;20542;-71
2024/03/08 01:10:15;;;;;;;84.83;57.83;;;4.50;10.30;;;;;;5033804;28;20418;-71
2024/03/08 01:12:42;;;;;;;87.10;57.57;;;4.40;10.50;;;;;;5034462;28;20808;-71
2024/03/08 01:15:10;;;;;;;86.27;56.37;;;4.40;11.70;;;;;;5034359;28;20414;-71
2024/03/08 01:17:36;;;;;;;82.87;56.13;;;4.40;12.30;;;;;;5034250;28;20438;-71
2024/03/08 01:20:02;;;;;;;87.40;58.03;;;4.40;12.30;;;;;;5034124;28;20467;-70
2024/03/08 01:22:29;;;;;;;83.97;49.03;;;4.40;13.20;;;;;;5034268;28;20407;-71
2024/03/08 01:24:55;;;;;;;83.27;63.17;;;4.30;12.20;;;;;;5033886;28;20403;-71
2024/03/08 01:27:21;;;;;;;83.10;53.60;;;4.30;13.30;;;;;;5034559;28;20406;-71
2024/03/08 01:29:46;;;;;;;85.87;51.33;;;4.30;13.50;;;;;;5034142;28;20431;-71
2024/03/08 01:32:12;;;;;;;83.53;51.10;;;4.30;13.30;;;;;;5034162;28;20176;-71
2024/03/08 01:34:38;;;;;;;85.10;55.73;;;4.20;13.80;;;;;;5033913;28;20182;-71
2024/03/08 01:37:03;;;;;;;98.53;86.30;;;4.20;15.30;;;;;;5034099;28;20251;-71
2024/03/08 01:39:29;;;;;;;80.57;51.67;;;4.20;15.50;;;;;;5033775;28;20617;-71
2024/03/08 01:41:55;;;;;;;82.00;47.63;;;4.30;15.50;;;;;;5034005;28;20200;-71
2024/03/08 01:44:20;;;;;;;80.37;46.60;;;4.20;15.80;;;;;;5033742;28;20202;-71
2024/03/08 01:46:47;;;;;;;83.23;55.83;;;4.10;16.50;;;;;;5033791;28;20772;-71
2024/03/08 01:49:14;;;;;;;81.27;48.70;;;4.10;17.10;;;;;;5033585;28;20686;-71
2024/03/08 01:51:41;;;;;;;78.73;44.23;;;4.10;17.20;;;;;;5033680;28;20460;-71
2024/03/08 01:54:09;;;;;;;84.17;55.03;;;4.10;18.00;;;;;;5033312;28;20902;-71
2024/03/08 01:56:36;;;;;;;82.37;49.67;;;4.10;18.90;;;;;;5033664;28;20435;-71
2024/03/08 01:59:02;;;;;;;84.37;56.30;;;4.10;19.30;;;;;;5033433;28;20497;-71
2024/03/08 02:01:28;;;;;;;82.23;53.20;;;4.20;19.10;;;;;;5033671;28;20410;-71
2024/03/08 02:03:54;;;;;;;88.67;54.97;;;3.90;31.80;;;;;;5033317;28;20407;-71
2024/03/08 02:06:20;;;;;;;85.00;53.97;;;4.00;19.30;;;;;;5032991;28;20909;-70
2024/03/08 02:08:46;;;;;;;81.57;50.50;;;4.00;19.80;;;;;;5032350;28;20212;-71
2024/03/08 02:11:12;;;;;;;89.43;59.40;;;3.90;20.40;;;;;;5033307;28;20711;-71
2024/03/08 02:13:38;;;;;;;82.87;54.20;;;3.90;21.50;;;;;;5033267;28;20925;-71
2024/03/08 02:16:04;;;;;;;86.70;55.70;;;3.90;21.40;;;;;;5033310;28;20399;-70
2024/03/08 02:18:30;;;;;;;86.50;57.07;;;3.90;21.00;;;;;;5032975;28;20274;-70
2024/03/08 02:20:57;;;;;;;89.70;62.00;;;3.90;22.20;;;;;;5032267;28;20782;-71
2024/03/08 02:23:26;;;;;;;89.63;61.63;;;3.80;23.00;;;;;;5032917;28;20823;-70
2024/03/08 02:25:53;;;;;;;85.90;55.60;;;3.90;23.80;;;;;;5033371;28;20407;-70
2024/03/08 02:28:19;;;;;;;82.93;54.77;;;3.90;23.80;;;;;;5033281;28;20790;-71
2024/03/08 02:30:55;;;;;;;85.63;60.43;;;4.10;38.90;;;;;;5032864;28;20502;-71
2024/03/08 02:33:22;;;;;;;88.50;65.40;;;3.80;24.60;;;;;;5032678;28;20783;-70
2024/03/08 02:35:48;;;;;;;88.07;63.73;;;4.60;42.00;;;;;;5032996;28;20498;-70
2024/03/08 02:38:18;;;;;;;86.87;61.50;;;3.80;25.70;;;;;;5033083;28;20479;-71
2024/03/08 02:40:45;;;;;;;93.80;61.73;;;3.70;25.10;;;;;;5032952;28;20491;-70
2024/03/08 02:43:11;;;;;;;89.10;61.40;;;3.70;25.70;;;;;;5032620;28;20411;-70
2024/03/08 02:45:37;;;;;;;89.67;65.47;;;3.70;26.50;;;;;;5032903;28;20486;-70
2024/03/08 02:48:03;;;;;;;89.20;64.47;;;3.60;43.80;;;;;;5032702;28;20981;-71
2024/03/08 02:50:29;;;;;;;88.17;59.23;;;3.70;27.50;;;;;;5032668;28;20252;-70
2024/03/08 02:52:54;;;;;;;90.67;59.50;;;3.60;27.80;;;;;;5032427;28;20418;-70
2024/03/08 02:55:20;;;;;;;97.00;71.77;;;3.70;28.80;;;;;;5032813;28;20173;-70
2024/03/08 02:57:49;;;;;;;88.93;64.23;;;3.50;44.90;;;;;;5032402;28;20204;-71
2024/03/08 03:00:15;;;;;;;83.27;57.70;;;3.60;28.50;;;;;;5032530;28;20178;-71
2024/03/08 03:02:42;;;;;;;90.72;64.47;;;3.60;29.50;;;;;;5032515;28;20442;-71
2024/03/08 03:05:09;;;;;;;86.87;61.23;;;3.60;30.20;;;;;;5032563;28;20202;-71
2024/03/08 03:07:35;;;;;;;86.73;55.07;;;3.60;29.70;;;;;;5032380;28;20411;-71
2024/03/08 03:10:01;;;;;;;87.17;52.67;;;3.60;30.00;;;;;;5032353;28;20477;-71
2024/03/08 03:12:28;;;;;;;94.72;72.30;;;3.60;30.50;;;;;;5032451;28;20395;-71
2024/03/08 03:14:53;;;;;;;87.15;52.75;;;3.50;30.80;;;;;;5032067;28;20172;-71
2024/03/08 03:17:19;;;;;;;83.33;49.50;;;3.50;31.10;;;;;;5032313;28;20658;-71
2024/03/08 03:19:46;;;;;;;84.20;44.17;;;3.50;31.40;;;;;;5031894;28;20215;-71
2024/03/08 03:22:12;;;;;;;83.53;52.97;;;3.50;32.50;;;;;;5032250;28;20406;-71
2024/03/08 03:24:42;;;;;;;81.07;50.07;;;3.50;31.50;;;;;;5031873;28;20477;-70
2024/03/08 03:27:14;;;;;;;83.20;47.77;;;3.50;32.40;;;;;;5032085;28;20411;-71
2024/03/08 03:29:42;;;;;;;85.27;52.03;;;3.50;33.70;;;;;;5031870;28;20438;-71
2024/03/08 03:32:08;;;;;;;78.43;45.93;;;3.50;32.10;;;;;;5031785;28;20402;-71
2024/03/08 03:34:37;;;;;;;93.10;53.58;;;3.40;32.30;;;;;;5031720;28;20415;-71
2024/03/08 03:37:03;;;;;;;83.60;48.78;;;3.50;50.60;;;;;;5031756;28;20176;-71
2024/03/08 03:39:31;;;;;;;78.27;46.30;;;3.40;34.30;;;;;;5032084;28;20301;-71
2024/03/08 03:41:58;;;;;;;89.70;48.33;;;3.40;34.30;;;;;;5031837;28;20411;-71
2024/03/08 03:44:24;;;;;;;85.53;51.92;;;3.40;35.60;;;;;;5031480;28;20914;-71
2024/03/08 03:46:52;;;;;;;83.50;48.07;;;3.40;34.70;;;;;;5031722;28;20176;-71
2024/03/08 03:49:18;;;;;;;86.43;47.27;;;3.40;35.70;;;;;;5031644;28;20426;-70
2024/03/08 03:51:44;;;;;;;81.80;45.70;;;3.30;34.60;;;;;;5031737;28;20449;-70
2024/03/08 03:54:10;;;;;;;82.87;47.13;;;3.30;35.30;;;;;;5031523;28;20176;-71
2024/03/08 03:56:36;;;;;;;89.97;49.63;;;3.30;36.40;;;;;;5031668;28;20417;-71
2024/03/08 03:59:01;;;;;;;82.00;52.83;;;3.40;36.60;;;;;;5031400;28;20517;-71
2024/03/08 04:01:27;;;;;;;83.67;49.67;;;3.40;35.50;;;;;;5031643;28;20176;-71
2024/03/08 04:03:52;;;;;;;84.47;59.67;;;3.30;36.00;;;;;;5031248;28;20173;-70
2024/03/08 04:06:18;;;;;;;86.60;57.20;;;3.30;36.90;;;;;;5031620;28;20172;-70
2024/03/08 04:08:43;;;;;;;84.03;52.33;;;3.30;36.90;;;;;;5031469;28;20196;-70
2024/03/08 04:11:09;;;;;;;83.63;51.80;;;3.30;37.80;;;;;;5031494;28;20302;-69
2024/03/08 04:13:36;;;;;;;125.97;114.23;;;3.30;36.90;;;;;;5031154;28;20183;-70
2024/03/08 04:16:02;;;;;;;87.30;49.90;;;3.30;37.00;;;;;;5031084;28;20722;-70
2024/03/08 04:18:28;;;;;;;91.37;47.33;;;3.20;36.80;;;;;;5031600;28;20554;-70
2024/03/08 04:20:53;;;;;;;96.03;80.47;;;3.20;37.60;;;;;;5031481;28;20782;-71
2024/03/08 04:23:19;;;;;;;79.93;45.37;;;3.20;39.40;;;;;;5031245;28;20173;-71
2024/03/08 04:25:45;;;;;;;79.57;42.83;;;3.20;38.30;;;;;;5031537;28;20196;-70
2024/03/08 04:28:11;;;;;;;83.37;44.97;;;3.10;39.20;;;;;;5031430;28;20588;-71
2024/03/08 04:30:38;;;;;;;79.63;44.07;;;3.10;39.80;;;;;;5031334;28;20188;-70
2024/03/08 04:33:03;;;;;;;87.30;48.50;;;3.20;39.70;;;;;;5031271;28;20434;-71
2024/03/08 04:35:30;;;;;;;88.57;47.67;;;3.10;40.80;;;;;;5031176;28;20439;-70
2024/03/08 04:37:57;;;;;;;88.07;43.70;;;3.20;59.20;;;;;;5031288;28;20403;-71
2024/03/08 04:40:23;;;;;;;88.33;49.93;;;3.10;42.50;;;;;;5031248;28;20411;-71
2024/03/08 04:42:50;;;;;;;80.17;45.53;;;3.10;42.40;;;;;;5031228;28;20429;-71
2024/03/08 04:45:16;;;;;;;80.80;43.67;;;3.10;42.50;;;;;;5034377;28;20251;-71
2024/03/08 04:47:42;;;;;;;89.17;57.20;;;3.10;42.80;;;;;;5035240;28;20446;-71
2024/03/08 04:50:11;;;;;;;85.87;49.23;;;3.10;43.40;;;;;;5035027;28;20454;-71
2024/03/08 04:52:36;;;;;;;83.67;46.87;;;3.10;42.90;;;;;;5035186;28;20310;-71
2024/03/08 04:55:05;;;;;;;85.10;49.73;;;3.10;43.00;;;;;;5034854;28;20510;-71
2024/03/08 04:57:30;;;;;;;80.93;50.28;;;3.20;42.80;;;;;;5035040;28;20180;-71
2024/03/08 04:59:56;;;;;;;82.60;46.67;;;3.20;42.10;;;;;;5035010;28;20549;-71
2024/03/08 05:02:22;;;;;;;82.77;46.87;;;3.20;41.70;;;;;;5034681;28;20251;-71
2024/03/08 05:04:48;;;;;;;117.65;93.97;;;3.10;41.60;;;;;;5034441;28;20263;-71
2024/03/08 05:07:14;;;;;;;88.03;45.37;;;3.10;41.70;;;;;;5034681;28;20207;-71
2024/03/08 05:09:40;;;;;;;84.67;49.57;;;3.10;42.00;;;;;;5035121;28;20187;-71
2024/03/08 05:12:07;;;;;;;85.90;44.85;;;3.00;41.80;;;;;;5034639;28;20659;-70
2024/03/08 05:14:34;;;;;;;82.53;47.55;;;3.00;42.20;;;;;;5034226;28;20176;-71
2024/03/08 05:17:00;;;;;;;78.87;42.70;;;3.00;42.10;;;;;;5034518;28;20183;-70
2024/03/08 05:19:26;;;;;;;90.68;43.65;;;3.00;43.20;;;;;;5034094;28;20467;-70
2024/03/08 05:21:52;;;;;;;87.03;40.23;;;2.90;44.30;;;;;;5034328;28;20543;-71
2024/03/08 05:24:18;;;;;;;84.27;45.17;;;3.00;44.00;;;;;;5033911;28;20933;-71
2024/03/08 05:26:44;;;;;;;86.20;40.20;;;2.90;43.80;;;;;;5034217;28;20410;-70
2024/03/08 05:29:09;;;;;;;85.63;42.93;;;2.90;44.50;;;;;;5034127;28;20203;-71
2024/03/08 05:31:49;;;;;;;82.97;45.27;;;2.90;43.80;;;;;;5034466;28;20168;-72
2024/03/08 05:34:19;;;;;;;82.00;44.97;;;2.90;43.90;;;;;;5034034;28;20406;-70
2024/03/08 05:36:46;;;;;;;107.03;93.50;;;2.90;44.50;;;;;;5034115;28;20420;-71
2024/03/08 05:39:15;;;;;;;85.65;45.38;;;2.90;45.60;;;;;;5033883;28;20338;-71
2024/03/08 05:41:41;;;;;;;82.70;45.78;;;2.90;45.60;;;;;;5034015;28;20175;-71
2024/03/08 05:44:06;;;;;;;84.53;45.75;;;2.80;43.70;;;;;;5033668;28;20723;-70
2024/03/08 05:46:33;;;;;;;93.50;69.10;;;2.80;45.40;;;;;;5033843;28;20183;-69
2024/03/08 05:48:58;;;;;;;83.10;44.67;;;2.80;46.60;;;;;;5034442;28;20431;-72
2024/03/08 05:51:28;;;;;;;90.17;61.73;;;2.80;46.50;;;;;;5035273;28;20426;-69
2024/03/08 05:53:55;;;;;;;87.43;44.08;;;2.80;48.60;;;;;;5034702;28;20168;-70
2024/03/08 05:56:22;;;;;;;84.45;44.97;;;2.90;47.70;;;;;;5034528;28;20191;-70
2024/03/08 05:58:49;;;;;;;105.82;94.60;;;2.80;46.30;;;;;;5034398;28;20216;-70
2024/03/08 06:01:15;;;;;;;79.07;36.57;;;2.70;45.30;;;;;;5034542;28;20184;-69
2024/03/08 06:03:44;;;;;;;79.03;38.47;;;2.70;46.20;;;;;;5034064;28;20407;-70
2024/03/08 06:06:12;;;;;;;83.60;42.50;;;2.60;47.10;;;;;;5034522;28;20176;-71
2024/03/08 06:08:38;;;;;;;1047.07;939.63;;;2.60;47.70;;;;;;5033842;28;20545;-70
2024/03/08 06:11:04;;;;;;;94.20;77.10;;;2.60;47.40;;;;;;5033101;28;20428;-70
2024/03/08 06:13:31;;;;;;;105.07;93.67;;;2.60;48.10;;;;;;5033984;28;20203;-70
2024/03/08 06:15:56;;;;;;;79.55;39.58;;;2.60;48.90;;;;;;5034442;28;20415;-70
2024/03/08 06:18:22;;;;;;;82.97;43.07;;;2.60;49.10;;;;;;5034116;28;20223;-70
2024/03/08 06:20:48;;;;;;;82.77;39.33;;;2.50;49.40;;;;;;5034584;28;20161;-70
2024/03/08 06:23:17;;;;;;;79.90;38.97;;;2.50;50.10;;;;;;5034359;28;20652;-69
2024/03/08 06:25:43;;;;;;;81.72;39.38;;;2.50;49.90;;;;;;5034720;28;20191;-69
2024/03/08 06:28:09;;;;;;;82.72;52.55;;;2.60;51.30;;;;;;5034865;28;20189;-70
2024/03/08 06:30:35;;;;;;;92.90;71.80;;;2.60;49.90;;;;;;5034913;28;20199;-69
2024/03/08 06:33:00;;;;;;;122.57;110.83;;;2.60;50.70;;;;;;5034424;28;20794;-70
2024/03/08 06:35:26;;;;;;;85.07;39.90;;;2.70;50.30;;;;;;5033874;28;20179;-70
2024/03/08 06:37:51;;;;;;;81.90;46.30;;;2.60;69.00;;;;;;5033493;28;20215;-71
2024/03/08 06:40:17;;;;;;;138.53;126.40;;;2.70;51.30;;;;;;5033938;28;20241;-69
2024/03/08 06:42:43;;;;;;;85.60;47.60;;;2.70;50.70;;;;;;5033762;28;20172;-70
2024/03/08 06:45:10;;;;;;;85.67;48.17;;;2.80;50.70;;;;;;5033761;28;20172;-70
2024/03/08 06:47:36;;;;;;;87.57;52.93;;;2.80;49.70;;;;;;5034358;28;20179;-70
2024/03/08 06:50:03;;;;;;;85.70;53.17;;;2.80;50.20;;;;;;5034555;28;20429;-71
2024/03/08 06:52:29;;;;;;;85.37;52.57;;;2.90;49.70;;;;;;5034265;28;20299;-70
2024/03/08 06:54:57;;;;;;;88.33;53.87;;;2.90;48.40;;;;;;5034348;28;20477;-70
2024/03/08 06:57:22;;;;;;;90.40;58.05;;;2.90;48.00;;;;;;5034368;28;20414;-70
2024/03/08 06:59:49;;;;;;;86.97;49.07;;;2.90;48.80;;;;;;5034342;28;20212;-70
2024/03/08 07:02:14;;;;;;;107.23;90.17;;;2.90;49.80;;;;;;5034459;28;20705;-69
2024/03/08 07:04:40;;;;;;;107.07;90.10;;;3.00;49.80;;;;;;5033728;28;20399;-69
2024/03/08 07:07:09;;;;;;;97.13;84.73;;;3.10;48.20;;;;;;5033926;28;20197;-69
2024/03/08 07:09:37;;;;;;;96.03;70.90;;;3.20;46.50;;;;;;5034224;28;20189;-71
2024/03/08 07:12:04;;;;;;;90.25;59.17;;;3.20;45.20;;;;;;5033745;28;20413;-70
2024/03/08 07:14:31;;;;;;;90.72;61.42;;;3.20;45.50;;;;;;5033462;28;20188;-70
2024/03/08 07:16:56;;;;;;;90.80;72.23;;;3.30;43.50;;;;;;5032970;28;20172;-70
2024/03/08 07:19:22;;;;;;;86.77;61.00;;;3.30;43.10;;;;;;5033259;28;20463;-69
2024/03/08 07:21:48;;;;;;;97.67;71.47;;;3.40;42.70;;;;;;5033656;28;20408;-70
2024/03/08 07:26:43;;;;;;;88.20;67.93;;;3.50;39.50;;;;;;5033511;28;20180;-69
2024/03/08 07:29:09;;;;;;;113.67;101.93;;;3.70;40.70;;;;;;5033216;28;20439;-70
2024/03/08 07:34:07;;;;;;;98.20;84.10;;;3.80;37.20;;;;;;5033438;28;20172;-71
2024/03/08 07:36:35;;;;;;;103.43;83.60;;;3.80;36.40;;;;;;5033545;28;20411;-70
2024/03/08 07:39:01;;;;;;;152.93;140.37;;;3.90;35.80;;;;;;5033313;28;20454;-71
2024/03/08 07:41:29;;;;;;;179.47;164.97;;;4.00;35.70;;;;;;5033094;28;20898;-71
2024/03/08 07:43:55;;;;;;;111.27;99.97;;;4.10;35.40;;;;;;5033294;28;20525;-70
2024/03/08 07:46:21;;;;;;;98.43;87.63;;;4.10;34.70;;;;;;5033691;28;20403;-70
2024/03/08 07:48:48;;;;;;;103.47;92.40;;;4.20;32.70;;;;;;5033599;28;20254;-70
2024/03/08 07:51:17;;;;;;;141.53;128.17;;;4.30;31.90;;;;;;5033362;28;20180;-71
2024/03/08 07:53:43;;;;;;;100.13;88.10;;;4.30;28.30;;;;;;5033366;28;20820;-69
2024/03/08 07:56:12;;;;;;;125.43;113.50;;;4.40;28.50;;;;;;5034844;28;20422;-71
2024/03/08 07:58:40;;;;;;;519.73;486.00;;;4.50;28.50;;;;;;5035335;28;20454;-70
2024/03/08 08:01:06;;;;;;;111.37;99.67;;;4.60;27.80;;;;;;5033730;28;20403;-70
2024/03/08 08:03:31;;;;;;;106.90;95.73;;;4.60;26.20;;;;;;5033500;28;20410;-70
2024/03/08 08:05:57;;;;;;;118.83;107.30;;;4.70;26.70;;;;;;5033725;28;20408;-71
2024/03/08 08:08:23;;;;;;;149.23;136.13;;;4.80;25.50;;;;;;5033401;28;20774;-70
2024/03/08 08:10:49;;;;;;;137.03;124.93;;;4.90;25.30;;;;;;5033206;28;20164;-70
2024/03/08 08:13:15;;;;;;;122.97;111.50;;;4.90;25.10;;;;;;5034017;28;20179;-69
2024/03/08 08:15:41;;;;;;;130.27;118.10;;;5.00;24.10;;;;;;5034216;28;20411;-70
2024/03/08 08:18:07;;;;;;;164.00;150.57;;;5.10;23.00;;;;;;5034571;28;21073;-70
2024/03/08 08:20:33;;;;;;;130.37;118.13;;;5.20;22.90;;;;;;5039209;28;20275;-70
2024/03/08 08:22:59;;;;;;;148.63;136.40;;;5.30;23.20;;;;;;5038921;28;20922;-70
2024/03/08 08:25:24;;;;;;;148.93;136.57;;;5.40;21.50;;;;;;5037732;28;20165;-71
2024/03/08 08:27:50;;;;;;;213.33;197.83;;;5.60;34.90;;;;;;5033594;28;20185;-71
2024/03/08 08:30:15;;;;;;;181.97;167.93;;;5.50;17.20;;;;;;5035810;28;20192;-71
2024/03/08 08:32:44;;;;;;;249.37;233.53;;;6.00;17.80;;;;;;5036911;28;20164;-70
2024/03/08 08:35:12;;;;;;;602.00;565.37;;;5.70;16.70;;;;;;5035709;28;20161;-71
2024/03/08 08:37:39;;;;;;;457.70;431.13;;;5.70;15.50;;;;;;5036786;28;20537;-72
2024/03/08 08:40:08;;;;;;;147.70;135.23;;;5.70;13.60;;;;;;5036135;28;20485;-71
2024/03/08 08:42:34;;;;;;;539.57;509.27;;;5.80;15.40;;;;;;5036160;28;20430;-71
2024/03/08 08:44:59;;;;;;;217.53;201.57;;;5.80;13.90;;;;;;5036041;28;20944;-71
2024/03/08 08:47:28;;;;;;;191.63;178.40;;;6.10;14.90;;;;;;5036354;28;20164;-71
2024/03/08 08:49:54;;;;;;;276.83;259.40;;;6.10;15.20;;;;;;5035829;28;20279;-70
2024/03/08 08:52:19;;;;;;;196.07;181.37;;;6.10;10.50;;;;;;5036356;28;20445;-69
2024/03/08 08:54:45;;;;;;;185.17;171.77;;;6.10;11.70;;;;;;5034850;28;20402;-71
2024/03/08 08:57:10;;;;;;;242.43;226.03;;;6.20;11.80;;;;;;5035300;28;20177;-71
2024/03/08 08:59:36;;;;;;;171.13;157.57;;;6.20;9.80;;;;;;5034272;28;20228;-71
2024/03/08 09:02:05;;;;;;;298.73;281.43;;;6.20;10.20;;;;;;5032151;28;20176;-71
2024/03/08 09:04:31;;;;;;;561.40;528.90;;;6.30;8.60;;;;;;5033137;28;20165;-73
2024/03/08 09:06:57;;;;;;;294.43;275.87;;;6.20;8.10;;;;;;5034082;28;20426;-73
2024/03/08 09:09:23;;;;;;;161.93;149.47;;;6.40;8.10;;;;;;5034034;28;20199;-72
2024/03/08 09:11:49;;;;;;;661.07;626.40;;;6.40;6.60;;;;;;5033961;28;20385;-73
2024/03/08 09:14:15;;;;;;;334.57;316.50;;;6.60;8.20;;;;;;5033418;28;20549;-72
2024/03/08 09:16:41;;;;;;;171.37;158.43;;;6.60;5.90;;;;;;5034047;28;20399;-72
2024/03/08 09:19:06;;;;;;;240.40;224.07;;;6.60;4.50;;;;;;5033393;28;20211;-72
2024/03/08 09:21:34;;;;;;;204.37;190.73;;;6.70;6.50;;;;;;5032795;28;20161;-71
2024/03/08 09:24:00;;;;;;;199.73;185.67;;;6.80;6.30;;;;;;5032495;28;20848;-71
2024/03/08 09:26:26;;;;;;;172.30;159.20;;;6.90;4.70;;;;;;5033118;28;20407;-72
2024/03/08 09:28:52;;;;;;;155.87;143.37;;;6.90;3.40;;;;;;5033981;28;20511;-74
2024/03/08 09:31:18;;;;;;;269.37;252.87;;;7.20;3.30;;;;;;5033399;28;20168;-72
2024/03/08 09:33:43;;;;;;;244.17;226.83;;;7.20;1.00;;;;;;5032656;28;20402;-69
2024/03/08 09:36:09;;;;;;;212.97;198.70;;;7.30;1.30;;;;;;5031684;28;20180;-70
2024/03/08 09:38:34;;;;;;;220.37;206.13;;;7.20;3.20;;;;;;5032576;28;20197;-70
2024/03/08 09:41:04;;;;;;;235.23;219.73;;;7.40;1.20;;;;;;5031718;28;20252;-70
2024/03/08 09:43:30;;;;;;;225.53;211.07;;;7.50;1.00;;;;;;5032156;28;20640;-69
2024/03/08 09:45:57;;;;;;;430.33;406.47;;;7.90;1.30;;;;;;5032647;28;20419;-70
2024/03/08 09:48:23;;;;;;;321.17;302.57;;;7.70;1.00;;;;;;5031977;28;20435;-69
2024/03/08 09:50:49;;;;;;;183.37;170.37;;;7.90;1.00;;;;;;5032688;28;20969;-70
2024/03/08 09:53:17;;;;;;;394.37;373.60;;;7.90;1.00;;;;;;5029282;28;20419;-70
2024/03/08 09:55:44;;;;;;;421.03;398.00;;;8.10;1.00;;;;;;5028070;28;20186;-70
2024/03/08 10:00:57;;;;;;;200.40;186.93;;;8.00;1.00;;;;;;5032189;28;20482;-69
2024/03/08 10:03:23;;;;;;;251.57;235.53;;;8.10;1.00;;;;;;5032315;28;20410;-69
2024/03/08 10:05:49;;;;;;;355.03;335.57;;;8.30;1.00;;;;;;5031487;28;20725;-70
2024/03/08 10:08:14;;;;;;;325.40;306.13;;;8.40;1.00;;;;;;5033935;28;20532;-71
2024/03/08 10:10:43;;;;;;;356.83;335.47;;;8.60;1.00;;;;;;5033109;28;20174;-71
2024/03/08 10:13:09;;;;;;;230.73;215.93;;;8.60;1.00;;;;;;5032831;28;20787;-71
2024/03/08 10:15:36;;;;;;;292.87;275.60;;;8.90;1.00;;;;;;5033218;28;20418;-69
2024/03/08 10:18:02;;;;;;;187.97;174.63;;;9.10;6.80;;;;;;5032646;28;20798;-71
2024/03/08 10:20:33;;;;;;;252.23;236.17;;;8.90;1.00;;;;;;5033177;28;20409;-71
2024/03/08 10:23:00;;;;;;;226.20;211.90;;;9.00;1.00;;;;;;5032525;28;20193;-71
2024/03/08 10:25:26;;;;;;;200.07;186.43;;;9.20;1.00;;;;;;5032579;28;20440;-70
2024/03/08 10:27:52;;;;;;;255.60;240.63;;;9.40;1.00;;;;;;5033001;28;20932;-70
2024/03/08 10:30:19;;;;;;;217.20;203.13;;;9.70;1.00;;;;;;5033143;28;20412;-72
2024/03/08 10:32:46;;;;;;;250.90;235.73;;;9.50;1.00;;;;;;5032425;28;20190;-72
2024/03/08 10:35:12;;;;;;;213.70;199.33;;;9.50;1.00;;;;;;5032169;28;20406;-70
2024/03/08 10:37:49;;;;;;;256.47;240.80;;;9.60;1.00;;;;;;5032854;28;20413;-69
2024/03/08 10:40:19;;;;;;;497.90;471.17;;;9.70;1.00;;;;;;5032552;28;20412;-70
2024/03/08 10:42:59;;;;;;;98.37;81.80;;;9.60;1.00;;;;;;5031974;28;20388;-71
2024/03/08 10:45:35;;;;;;;319.17;300.00;;;9.60;1.00;;;;;;5032684;28;20453;-71
2024/03/08 10:48:37;;;;;;;101.20;91.03;;;9.60;1.00;;;;;;5031983;28;20416;-70
2024/03/08 10:51:03;;;;;;;117.37;106.33;;;9.70;1.00;;;;;;5032667;28;20402;-69
2024/03/08 10:53:29;;;;;;;144.37;132.67;;;9.80;1.00;;;;;;5031596;28;20393;-70
2024/03/08 10:55:58;;;;;;;520.70;489.10;;;9.90;1.00;;;;;;5031941;28;20398;-70
2024/03/08 10:58:28;;;;;;;462.33;437.33;;;10.00;1.00;;;;;;5031242;28;20493;-69
2024/03/08 11:00:57;;;;;;;141.30;129.43;;;10.10;1.00;;;;;;5031724;28;20410;-68
2024/03/08 11:03:44;;;;;;;224.40;207.87;;;10.20;1.00;;;;;;5031346;28;20428;-70
2024/03/08 11:06:18;;;;;;;222.77;208.47;;;10.30;1.00;;;;;;5031991;28;20406;-69
2024/03/08 11:08:45;;;;;;;121.57;110.30;;;10.50;1.00;;;;;;5031884;28;20449;-70
2024/03/08 11:11:27;;;;;;;151.80;139.40;;;10.40;1.00;;;;;;5031995;28;20410;-70
2024/03/08 11:13:56;;;;;;;146.60;134.07;;;10.50;1.00;;;;;;5031124;28;20410;-70
2024/03/08 11:16:28;;;;;;;90.63;80.80;;;10.60;1.00;;;;;;5031591;28;20410;-69
2024/03/08 11:19:23;;;;;;;129.03;117.80;;;10.80;1.00;;;;;;5031673;28;20830;-69
2024/03/08 11:21:57;;;;;;;135.57;124.53;;;11.00;1.00;;;;;;5031900;28;20402;-69
2024/03/08 11:24:23;;;;;;;228.27;213.83;;;11.40;1.00;;;;;;5029699;28;20421;-69
2024/03/08 11:26:54;;;;;;;113.83;103.17;;;11.50;1.00;;;;;;5031315;28;20406;-70
2024/03/08 11:29:35;;;;;;;92.87;79.77;;;11.60;1.00;;;;;;5032289;28;20469;-70
2024/03/08 11:32:05;;;;;;;92.17;80.87;;;11.60;1.00;;;;;;5031481;28;20407;-70
2024/03/08 11:34:33;;;;;;;90.63;78.77;;;11.60;1.00;;;;;;5031204;28;20404;-69
2024/03/08 11:36:59;;;;;;;106.33;95.27;;;11.40;1.00;;;;;;5031807;28;20407;-69
2024/03/08 11:39:25;;;;;;;106.07;95.47;;;11.30;1.00;;;;;;5031157;28;20450;-70
2024/03/08 11:41:51;;;;;;;90.37;80.60;;;11.20;1.00;;;;;;5031874;28;20402;-70
2024/03/08 11:44:17;;;;;;;93.53;83.73;;;11.60;1.00;;;;;;5031206;28;20442;-69
2024/03/08 11:46:47;;;;;;;80.53;58.90;;;12.00;1.00;;;;;;5031005;28;20434;-70
2024/03/08 11:49:16;;;;;;;79.47;57.50;;;12.30;1.00;;;;;;5031481;28;20432;-69
2024/03/08 11:51:43;;;;;;;82.37;54.50;;;12.60;1.00;;;;;;5031547;28;20939;-70
2024/03/08 11:54:13;;;;;;;84.57;62.53;;;13.20;1.00;;;;;;5030049;28;20451;-70
2024/03/08 11:56:38;;;;;;;86.60;68.77;;;13.80;1.00;;;;;;5031211;28;20420;-69
2024/03/08 11:59:05;;;;;;;71.50;37.17;;;14.00;1.00;;;;;;5031316;28;20458;-70
2024/03/08 12:01:31;;;;;;;70.30;30.33;;;14.40;1.00;;;;;;5030900;28;20193;-69
2024/03/08 12:04:00;;;;;;;72.17;39.33;;;14.70;1.00;;;;;;5030781;28;20403;-69
2024/03/08 12:06:27;;;;;;;69.47;30.10;;;14.90;1.00;;;;;;5031227;28;20410;-71
2024/03/08 12:08:53;;;;;;;69.27;28.67;;;15.30;1.00;;;;;;5030657;28;20417;-69
2024/03/08 12:11:22;;;;;;;67.87;29.87;;;15.20;1.00;;;;;;5031451;28;20411;-70
2024/03/08 12:13:50;;;;;;;71.10;32.20;;;15.50;1.00;;;;;;5030717;28;20419;-70
2024/03/08 12:16:21;;;;;;;68.90;31.00;;;15.80;1.00;;;;;;5030825;28;20457;-69
2024/03/08 12:18:48;;;;;;;77.80;43.77;;;16.20;1.00;;;;;;5031006;28;20475;-70
2024/03/08 12:21:17;;;;;;;70.10;24.73;;;16.30;1.00;;;;;;5031041;28;20468;-70
2024/03/08 12:23:44;;;;;;;72.67;31.70;;;16.20;1.00;;;;;;5030152;28;20928;-70
2024/03/08 12:26:18;;;;;;;69.00;28.90;;;16.10;1.00;;;;;;5031138;28;20458;-70
2024/03/08 12:28:45;;;;;;;86.47;75.97;;;16.30;1.00;;;;;;5030978;28;20453;-70
2024/03/08 12:31:22;;;;;;;76.73;40.30;;;16.60;1.00;;;;;;5030741;28;20445;-70
2024/03/08 12:33:51;;;;;;;67.27;19.60;;;16.90;1.00;;;;;;5030497;28;20383;-70
2024/03/08 12:36:17;;;;;;;70.83;25.63;;;17.10;1.00;;;;;;5031132;28;20449;-70
2024/03/08 12:38:50;;;;;;;78.77;37.40;;;17.40;1.00;;;;;;5030402;28;20447;-70
2024/03/08 12:41:21;;;;;;;69.67;23.50;;;17.60;1.00;;;;;;5031200;28;20779;-71